Aguas de Sao Pedro, Brazil
Current Conditions -  °F | °C
As of 8:00 AM on Friday 31 Oct 2014 (Local Time) from SBYS Reporting Station
Scattered Clouds Scattered Clouds  
Wind Chill: 72°   Ceiling: Unl
Heat Index: 72°   Visibility: 6mi
Dew Point: 63°   Wind: 6mph
Humidity: 73%   Direction: 330°NNW
Pressure: 30.03"   Gusts: NA
Location:  22.6°S, 47.88°W
Report Text: SBYS 311000Z 33005KT 9999 FEW030 SCT070 22/17 Q1017
Loading
Personal Weather Stations






























Interactive Weather Map
Tropical Storm Tracking
New forecast layout! Learn more

10-Day Weather Forecast

Advertisements
Track Severe Weather on mobile